Aeroporto :
LOGIN :

Iscrizione | Disclaimer

   EN    FR    IT 

 










Sommario :    VFR   VFR Marginale   IFR   IFR Intensivo   IFR Molto Intensivo
Visibilità : 
Base nubi : 
>= 8 km
>= 3000ft
5 / 8 km
1000 / 3000 ft
1500m / 5 km
500 / 1000 ft
800 / 1500m
200 / 500 ft
< 800m
< 200 ft
Simboli :   Temporali  Nebbia  Neve Forte  Precipitazioni Forti  Vento > 20 kt
SIGMETs :   Varie  Temporali  Ghiacco  Turbolenza  Onda orograficha  Ceneri Vulcaniche






- Altitudine del aeroporto : 407 ft


EGDM - MoD Boscombe Down Amesbury

ULTIMO METAR :
  • 171150Z 34015KT 9999 SCT040 11/01 Q1016 NOSIG RMK BLU BLU

METARs OBSOLETI :
  • 171120Z AUTO 33014KT 9999 FEW034/// BKN042/// 11/01 Q1016
  • 171050Z 30012KT 9999 SCT035 10/04 Q1016 NOSIG RMK BLU BLU
  • 171020Z 33014G24KT 9999 VCSH SCT030 10/02 Q1017 NOSIG RMK BLU BLU
  • 170950Z 33016KT 9999 SCT035 09/01 Q1017 NOSIG RMK BLU BLU
  • 170920Z 32014KT 9999 SCT028 08/02 Q1017 NOSIG RMK BLU BLU
  • 170850Z 32014KT 9999 SCT025 09/04 Q1017 NOSIG RMK BLU BLU
  • 170820Z 31014KT 9999 FEW022 SCT060 08/04 Q1017 TEMPO SCT022 RMK BLU TEMPO WHT
  • 170750Z 31012KT 9999 FEW020 SCT060 08/03 Q1017 NOSIG RMK BLU BLU
  • 170720Z 31010KT 9999 FEW020 07/04 Q1017 NOSIG RMK BLU BLU

TAF TAF EGDM
Valido dal 17 a 12 ore il 17 a 18 ore UTC


171045Z 1712/1718 32012KT 9999 SCT035
PROB30
TEMPO 1712/1717 33015G25KT 7000 -SHRA



MetMap, La meteo Aeronautica in un colpo d'occhio ! - Copyright ORBIFLY Dicembre 2007 - Disclaimer

ORBIFLY MET'MAP TEAM :

Programmazione e sviluppo : Alexandra Zaïnal
Concezione : Baudouin d'Aumeries
Supporto tecnico e logistico : Manuel Goepfert
Aiuto : Marc-Olivier Méhu
Aiuto per la traduzione : Arnaldo La Scala




FONTI E CREDITI :

   NOAA